Søk
Bilder fra klubbens virksomhet
Tooltip
Kim M Mortensen har fløyet solo
Tooltip
Espen Wiik har fløyet solo
Tooltip
Rashad Habib har fløyet solo
Tooltip
David Froholt har fløyet solo
Tooltip
Leif Olsen er pilot
  • Tilfeldig bilde
     
    Opplastet 22-05-2008
    Opplastet 20-05-2008
    Opplastet 22-05-2008
     
  • Siste bilde
     
    Opplastet 05-06-2018
    Opplastet 31-10-2017
    Opplastet 31-10-2017
     
«StartForrige1234NesteSiste»
Side 1 av 4
 
 
METAR
2018/06/18 16:50 ENCN 181650Z 23015KT 9999 SCT022 15/10 Q1009
TAF
2018/06/18 15:38 TAF ENCN 181400Z 1815/1821 21010KT 9999 BKN014 TEMPO 1815/1816 BKN008 BECMG 1816/1818 SCT020
LN-KFK
Operativ VFR-natt
VFR dag
03:04 - 23:53
Brannvakt
Inaktiv
Banner
Banner
Banner
Banner
Banner